Time;durP1;ratioP1;P1;durP2;ratioP2;P2;SDS_P1;SDS_P2;PMS_P1;PMS_P2;Temp;Humidity;BMP_temperature;BMP_pressure;BME280_temperature;BME280_humidity;BME280_pressure;Samples;Min_cycle;Max_cycle;Signal;HPM_P1;HPM_P2
2022/05/19 00:01:42;;;;;;;;;;;;;;;27.97;70.82;99248.97;5026901;28;19924;-39
2022/05/19 00:04:08;;;;;;;;;;;;;;;27.58;75.23;99254.56;5027308;28;20585;-39
2022/05/19 00:06:33;;;;;;;;;;;;;;;27.59;71.63;99249.09;5029998;28;19921;-40
2022/05/19 00:08:58;;;;;;;;;;;;;;;27.41;75.86;99238.53;5026723;28;19921;-39
2022/05/19 00:11:26;;;;;;;;;;;;;;;28.07;70.29;99239.09;5027373;28;19928;-39
2022/05/19 00:13:51;;;;;;;;;;;;;;;28.05;71.36;99236.59;5008591;28;19921;-39
2022/05/19 00:16:16;;;;;;;;;;;;;;;27.46;73.32;99233.63;5029988;28;19917;-39
2022/05/19 00:18:42;;;;;;;;;;;;;;;28.00;71.42;99230.09;5030845;28;19929;-39
2022/05/19 00:21:07;;;;;;;;;;;;;;;27.19;76.54;99233.69;5030565;28;19967;-39
2022/05/19 00:23:32;;;;;;;;;;;;;;;27.26;74.79;99232.13;5031215;28;19925;-40
2022/05/19 00:25:57;;;;;;;;;;;;;;;27.08;76.67;99235.53;5027389;28;20932;-39
2022/05/19 00:28:23;;;;;;;;;;;;;;;27.52;74.19;99225.06;5028915;28;19917;-39
2022/05/19 00:30:48;;;;;;;;;;;;;;;27.33;75.46;99225.25;5033071;28;19952;-39
2022/05/19 00:33:13;;;;;;;;;;;;;;;27.40;74.06;99226.31;5031657;28;19925;-39
2022/05/19 00:35:39;;;;;;;;;;;;;;;26.82;76.07;99231.94;5029732;28;19920;-39
2022/05/19 00:38:04;;;;;;;;;;;;;;;27.29;75.43;99222.06;5030880;28;19925;-39
2022/05/19 00:40:29;;;;;;;;;;;;;;;27.48;73.08;99228.19;5029916;28;20423;-39
2022/05/19 00:42:55;;;;;;;;;;;;;;;27.21;75.29;99231.72;5030466;28;19928;-39
2022/05/19 00:45:21;;;;;;;;;;;;;;;27.00;78.11;99224.88;5029149;28;20323;-39
2022/05/19 00:47:48;;;;;;;;;;;;;;;26.57;77.87;99231.66;5030059;28;19940;-39
2022/05/19 00:50:17;;;;;;;;;;;;;;;26.72;76.90;99231.16;5013307;28;20436;-39
2022/05/19 00:52:42;;;;;;;;;;;;;;;27.06;75.86;99226.09;5031178;28;20027;-39
2022/05/19 00:55:12;;;;;;;;;;;;;;;26.53;78.40;99230.25;5032631;28;20040;-40
2022/05/19 00:57:38;;;;;;;;;;;;;;;26.78;77.61;99220.84;5015341;28;19925;-40
2022/05/19 01:00:05;;;;;;;;;;;;;;;26.95;76.38;99215.72;5011410;28;19913;-39
2022/05/19 01:02:33;;;;;;;;;;;;;;;26.28;79.27;99218.53;5029672;28;19921;-39
2022/05/19 01:05:01;;;;;;;;;;;;;;;26.63;76.54;99214.38;5015374;28;19917;-39
2022/05/19 01:07:29;;;;;;;;;;;;;;;26.68;79.18;99222.69;5030474;28;19943;-39
2022/05/19 01:09:55;;;;;;;;;;;;;;;26.17;77.99;99203.69;5012570;28;19923;-39
2022/05/19 01:12:21;;;;;;;;;;;;;;;26.67;78.29;99208.66;5015495;28;19921;-39
2022/05/19 01:14:46;;;;;;;;;;;;;;;26.33;78.22;99205.72;5010233;28;20016;-39
2022/05/19 01:17:11;;;;;;;;;;;;;;;26.25;79.30;99209.09;5032725;28;19916;-39
2022/05/19 01:19:47;;;;;;;;;;;;;;;25.86;81.99;99208.31;4996699;28;19940;-39
2022/05/19 01:22:21;;;;;;;;;;;;;;;26.48;78.20;99199.00;5010110;28;20042;-39
2022/05/19 01:24:50;;;;;;;;;;;;;;;26.73;77.49;99201.97;5025322;28;19917;-39
2022/05/19 01:27:15;;;;;;;;;;;;;;;26.32;76.74;99190.88;5011863;28;19920;-39
2022/05/19 01:29:40;;;;;;;;;;;;;;;26.40;77.93;99200.69;5029496;28;19927;-39
2022/05/19 01:32:06;;;;;;;;;;;;;;;26.62;76.43;99196.88;5031099;28;19920;-39
2022/05/19 01:34:32;;;;;;;;;;;;;;;26.40;77.53;99195.41;5013804;28;19936;-39
2022/05/19 01:36:58;;;;;;;;;;;;;;;25.80;80.35;99193.91;5031912;28;20016;-39
2022/05/19 01:39:24;;;;;;;;;;;;;;;26.37;78.69;99179.88;5030244;28;19921;-39
2022/05/19 01:42:05;;;;;;;;;;;;;;;25.99;80.18;99179.84;5027287;28;20171;-40
2022/05/19 01:44:33;;;;;;;;;;;;;;;26.21;79.96;99181.31;5027731;28;20342;-39
2022/05/19 01:47:04;;;;;;;;;;;;;;;26.25;76.44;99171.28;5031036;28;20397;-39
2022/05/19 01:49:35;;;;;;;;;;;;;;;26.29;77.32;99185.84;5026507;28;20939;-39
2022/05/19 01:52:00;;;;;;;;;;;;;;;26.65;76.86;99181.53;5008502;28;20002;-39
2022/05/19 01:54:28;;;;;;;;;;;;;;;26.57;78.11;99181.47;5025485;28;19999;-39
2022/05/19 01:57:10;;;;;;;;;;;;;;;26.49;76.03;99181.31;5010062;28;20699;-39
2022/05/19 01:59:35;;;;;;;;;;;;;;;26.73;77.11;99179.97;4993520;28;19921;-39
2022/05/19 02:02:09;;;;;;;;;;;;;;;26.44;78.54;99186.22;5025199;28;19967;-39
2022/05/19 02:04:38;;;;;;;;;;;;;;;26.25;78.75;99185.34;5008284;28;20385;-39
2022/05/19 02:07:04;;;;;;;;;;;;;;;26.33;77.79;99181.13;5026235;28;19921;-39
2022/05/19 02:09:31;;;;;;;;;;;;;;;26.17;79.25;99179.94;5007074;28;19924;-39
2022/05/19 02:11:57;;;;;;;;;;;;;;;26.37;78.27;99179.88;5008765;28;19921;-39
2022/05/19 02:14:30;;;;;;;;;;;;;;;26.67;77.19;99179.59;5029306;28;20006;-39
2022/05/19 02:16:56;;;;;;;;;;;;;;;26.02;80.38;99176.09;5010409;28;20463;-39
2022/05/19 02:19:26;;;;;;;;;;;;;;;25.49;82.87;99173.94;5024754;28;20023;-39
2022/05/19 02:21:52;;;;;;;;;;;;;;;26.09;80.20;99169.25;5006249;28;19928;-39
2022/05/19 02:24:18;;;;;;;;;;;;;;;26.02;80.82;99160.25;5012631;28;19917;-39
2022/05/19 02:26:44;;;;;;;;;;;;;;;25.87;80.07;99171.28;5011565;28;19928;-40
2022/05/19 02:29:14;;;;;;;;;;;;;;;25.90;81.56;99164.88;5027490;28;19921;-39
2022/05/19 02:31:43;;;;;;;;;;;;;;;25.82;83.25;99164.75;5024386;28;19921;-39
2022/05/19 02:34:08;;;;;;;;;;;;;;;25.29;85.73;99166.03;5029439;28;19917;-39
2022/05/19 02:36:33;;;;;;;;;;;;;;;25.67;84.35;99153.78;5025825;28;19976;-39
2022/05/19 02:38:59;;;;;;;;;;;;;;;25.63;84.16;99155.88;5027942;28;19925;-39
2022/05/19 02:41:24;;;;;;;;;;;;;;;25.65;83.30;99163.66;5029686;28;19912;-39
2022/05/19 02:43:49;;;;;;;;;;;;;;;25.70;82.98;99166.69;5027846;28;20429;-39
2022/05/19 02:46:14;;;;;;;;;;;;;;;25.97;80.99;99162.50;5026452;28;20597;-39
2022/05/19 02:48:40;;;;;;;;;;;;;;;26.22;79.43;99172.41;5023660;28;19924;-40
2022/05/19 02:51:05;;;;;;;;;;;;;;;26.17;80.90;99164.09;5025948;28;19921;-39
2022/05/19 02:53:30;;;;;;;;;;;;;;;26.05;80.01;99165.25;5029726;28;19952;-39
2022/05/19 02:55:55;;;;;;;;;;;;;;;26.02;81.01;99160.25;5025506;28;19916;-39
2022/05/19 02:58:20;;;;;;;;;;;;;;;26.04;81.88;99167.03;5024222;28;19963;-39
2022/05/19 03:00:47;;;;;;;;;;;;;;;25.79;81.24;99165.84;5027442;28;19963;-39
2022/05/19 03:03:12;;;;;;;;;;;;;;;25.57;83.63;99174.91;5028325;28;19964;-39
2022/05/19 03:05:38;;;;;;;;;;;;;;;25.74;82.38;99170.72;5027129;28;20046;-39
2022/05/19 03:08:04;;;;;;;;;;;;;;;25.71;82.35;99172.81;5028112;28;19917;-40
2022/05/19 03:10:29;;;;;;;;;;;;;;;25.49;84.39;99179.22;5029543;28;19921;-39
2022/05/19 03:12:55;;;;;;;;;;;;;;;25.84;83.99;99170.69;5027614;28;19928;-39
2022/05/19 03:15:20;;;;;;;;;;;;;;;25.81;82.18;99168.34;5027591;28;19924;-39
2022/05/19 03:17:45;;;;;;;;;;;;;;;25.48;83.98;99175.75;5029626;28;19935;-39
2022/05/19 03:20:11;;;;;;;;;;;;;;;25.52;84.69;99171.00;5029154;28;19923;-39
2022/05/19 03:22:36;;;;;;;;;;;;;;;25.40;84.50;99165.88;5028695;28;20414;-39
2022/05/19 03:25:02;;;;;;;;;;;;;;;25.37;85.87;99158.28;5022848;28;20065;-39
2022/05/19 03:27:27;;;;;;;;;;;;;;;25.51;85.38;99161.44;5027153;28;20015;-39
2022/05/19 03:29:53;;;;;;;;;;;;;;;25.28;85.11;99161.75;5023847;28;19964;-39
2022/05/19 03:32:18;;;;;;;;;;;;;;;25.40;84.64;99165.06;5025848;28;20056;-39
2022/05/19 03:34:43;;;;;;;;;;;;;;;25.58;84.43;99159.91;5022499;28;20816;-39
2022/05/19 03:37:09;;;;;;;;;;;;;;;25.30;84.39;99158.97;5023459;28;19917;-39
2022/05/19 03:39:35;;;;;;;;;;;;;;;25.55;84.80;99163.66;5025985;28;19990;-39
2022/05/19 03:42:00;;;;;;;;;;;;;;;24.98;86.60;99170.59;5022183;28;20433;-39
2022/05/19 03:44:26;;;;;;;;;;;;;;;24.90;86.26;99176.50;5021567;28;19921;-39
2022/05/19 03:46:51;;;;;;;;;;;;;;;25.71;83.13;99176.28;5025020;28;19948;-39
2022/05/19 03:49:16;;;;;;;;;;;;;;;25.22;83.78;99180.75;5026301;28;19924;-39
2022/05/19 03:51:42;;;;;;;;;;;;;;;25.43;83.23;99170.91;5013159;28;19921;-39
2022/05/19 03:54:07;;;;;;;;;;;;;;;25.15;86.25;99182.22;5028587;28;20000;-39
2022/05/19 03:56:32;;;;;;;;;;;;;;;25.46;83.56;99175.06;5026685;28;19921;-39
2022/05/19 03:58:58;;;;;;;;;;;;;;;25.10;86.15;99174.75;5031355;28;20852;-39
2022/05/19 04:01:23;;;;;;;;;;;;;;;24.84;84.70;99182.34;5026863;28;19917;-39
2022/05/19 04:03:49;;;;;;;;;;;;;;;24.89;86.85;99182.75;5029019;28;19921;-39
2022/05/19 04:06:15;;;;;;;;;;;;;;;25.33;86.15;99182.41;5030480;28;19916;-39
2022/05/19 04:08:40;;;;;;;;;;;;;;;25.39;85.00;99184.50;5033211;28;19916;-39
2022/05/19 04:11:05;;;;;;;;;;;;;;;25.16;86.50;99191.81;5030410;28;19925;-39
2022/05/19 04:13:30;;;;;;;;;;;;;;;25.63;83.13;99197.25;5029300;28;19929;-39
2022/05/19 04:15:56;;;;;;;;;;;;;;;25.99;81.47;99189.56;5030824;28;20027;-39
2022/05/19 04:18:21;;;;;;;;;;;;;;;25.59;80.11;99195.84;5032550;28;20337;-39
2022/05/19 04:20:46;;;;;;;;;;;;;;;25.39;82.46;99193.25;5034266;28;20329;-39
2022/05/19 04:23:12;;;;;;;;;;;;;;;25.40;84.37;99189.63;5030118;28;19925;-39
2022/05/19 04:25:37;;;;;;;;;;;;;;;25.71;80.93;99189.47;5025364;28;19920;-39
2022/05/19 04:28:03;;;;;;;;;;;;;;;25.55;84.26;99187.41;5029117;28;19927;-39
2022/05/19 04:30:28;;;;;;;;;;;;;;;25.32;82.71;99194.78;5028439;28;19996;-39
2022/05/19 04:32:53;;;;;;;;;;;;;;;24.67;87.02;99206.69;5027002;28;19921;-39
2022/05/19 04:35:18;;;;;;;;;;;;;;;24.91;86.21;99199.28;5027452;28;20011;-39
2022/05/19 04:37:44;;;;;;;;;;;;;;;24.93;86.43;99192.06;5028856;28;20495;-40
2022/05/19 04:40:10;;;;;;;;;;;;;;;24.55;85.45;99201.53;5038292;28;19959;-39
2022/05/19 04:42:35;;;;;;;;;;;;;;;24.87;86.88;99195.25;5039282;28;19963;-39
2022/05/19 04:45:00;;;;;;;;;;;;;;;24.50;88.39;99201.09;5034686;28;19982;-39
2022/05/19 04:47:26;;;;;;;;;;;;;;;25.42;84.80;99187.69;5039689;28;20377;-39
2022/05/19 04:49:51;;;;;;;;;;;;;;;24.68;88.67;99200.44;5035082;28;20703;-39
2022/05/19 04:52:16;;;;;;;;;;;;;;;25.31;85.68;99193.09;5035942;28;19917;-39
2022/05/19 04:54:41;;;;;;;;;;;;;;;24.80;85.41;99199.38;5035443;28;19925;-39
2022/05/19 04:57:07;;;;;;;;;;;;;;;25.01;85.57;99189.56;5037249;28;19963;-39
2022/05/19 04:59:35;;;;;;;;;;;;;;;25.37;83.38;99189.09;5030644;28;20015;-39
2022/05/19 05:02:00;;;;;;;;;;;;;;;25.24;84.65;99186.72;5036673;28;20035;-39
2022/05/19 05:04:26;;;;;;;;;;;;;;;25.56;83.45;99181.16;5032583;28;20809;-39
2022/05/19 05:06:52;;;;;;;;;;;;;;;25.12;83.46;99187.78;5020810;28;20803;-39
2022/05/19 05:09:17;;;;;;;;;;;;;;;25.27;82.88;99186.41;5033842;28;20772;-39
2022/05/19 05:11:42;;;;;;;;;;;;;;;25.42;83.97;99174.50;5032578;28;19917;-39
2022/05/19 05:14:08;;;;;;;;;;;;;;;25.17;82.49;99180.28;5042538;28;19917;-39
2022/05/19 05:16:33;;;;;;;;;;;;;;;25.70;81.13;99179.88;5040852;28;20051;-39
2022/05/19 05:18:58;;;;;;;;;;;;;;;25.28;83.19;99184.66;5037045;28;19920;-39
2022/05/19 05:21:23;;;;;;;;;;;;;;;25.23;84.34;99180.63;5034319;28;19960;-39
2022/05/19 05:23:49;;;;;;;;;;;;;;;25.86;79.45;99166.94;5032832;28;19913;-39
2022/05/19 05:26:14;;;;;;;;;;;;;;;25.95;78.53;99175.00;5040750;28;19917;-39
2022/05/19 05:28:39;;;;;;;;;;;;;;;25.38;82.60;99173.09;5034233;28;19952;-39
2022/05/19 05:31:04;;;;;;;;;;;;;;;25.18;82.10;99174.94;5037352;28;19951;-39
2022/05/19 05:33:30;;;;;;;;;;;;;;;25.02;81.78;99175.44;5035671;28;19970;-39
2022/05/19 05:35:55;;;;;;;;;;;;;;;25.80;80.67;99172.78;5035272;28;19967;-39
2022/05/19 05:38:20;;;;;;;;;;;;;;;25.70;79.22;99171.13;5036235;28;19967;-46
2022/05/19 05:40:46;;;;;;;;;;;;;;;25.83;80.60;99167.22;5038669;28;19913;-47
2022/05/19 05:43:14;;;;;;;;;;;;;;;25.20;82.19;99166.88;5037754;28;19924;-47
2022/05/19 05:45:40;;;;;;;;;;;;;;;25.41;78.95;99167.56;5033149;28;19920;-45
2022/05/19 05:48:06;;;;;;;;;;;;;;;25.66;79.91;99168.78;5035297;28;19920;-49
2022/05/19 05:50:31;;;;;;;;;;;;;;;25.81;76.23;99169.16;5039358;28;20661;-44
2022/05/19 05:52:56;;;;;;;;;;;;;;;26.50;72.85;99153.94;5038475;28;20393;-45
2022/05/19 05:55:21;;;;;;;;;;;;;;;26.38;71.46;99163.03;5035210;28;19921;-45
2022/05/19 05:57:47;;;;;;;;;;;;;;;26.44;73.47;99155.38;5038929;28;20005;-45
2022/05/19 06:00:12;;;;;;;;;;;;;;;26.88;67.57;99162.63;5039144;28;20003;-48
2022/05/19 06:02:38;;;;;;;;;;;;;;;27.02;67.71;99158.66;5037416;28;20306;-47
2022/05/19 06:05:03;;;;;;;;;;;;;;;26.78;68.16;99152.16;5036589;28;20050;-45
2022/05/19 06:07:29;;;;;;;;;;;;;;;26.68;67.33;99165.41;5033208;28;19917;-47
2022/05/19 06:09:54;;;;;;;;;;;;;;;27.21;66.08;99163.81;5030318;28;19970;-44
2022/05/19 06:12:20;;;;;;;;;;;;;;;27.16;62.51;99162.56;5031678;28;20464;-45
2022/05/19 06:14:45;;;;;;;;;;;;;;;27.16;64.43;99165.22;5031938;28;19921;-46
2022/05/19 06:17:10;;;;;;;;;;;;;;;27.70;61.66;99155.44;5032150;28;19924;-43
2022/05/19 06:19:35;;;;;;;;;;;;;;;27.49;60.53;99153.97;5033382;28;19921;-46
2022/05/19 06:22:01;;;;;;;;;;;;;;;27.84;60.22;99149.59;5029394;28;19927;-45
2022/05/19 06:24:26;;;;;;;;;;;;;;;27.68;62.93;99155.56;5031143;28;19952;-45
2022/05/19 06:26:51;;;;;;;;;;;;;;;28.36;58.84;99146.88;5030739;28;19950;-45
2022/05/19 06:29:16;;;;;;;;;;;;;;;27.08;61.54;99150.94;5030656;28;20331;-47
2022/05/19 06:31:42;;;;;;;;;;;;;;;26.90;57.73;99145.66;5026375;28;20391;-45
2022/05/19 06:34:07;;;;;;;;;;;;;;;27.74;56.40;99147.03;5028704;28;19916;-44
2022/05/19 06:36:32;;;;;;;;;;;;;;;27.26;57.66;99142.22;5026836;28;19939;-47
2022/05/19 06:38:58;;;;;;;;;;;;;;;27.96;55.68;99136.91;5030581;28;20066;-48
2022/05/19 06:44:07;;;;;;;;;;;;;;;27.31;58.59;99130.19;5029684;28;19928;-45
2022/05/19 06:46:33;;;;;;;;;;;;;;;27.06;59.80;99138.88;5015304;28;19917;-46
2022/05/19 06:49:02;;;;;;;;;;;;;;;26.96;59.78;99132.81;5030459;28;19916;-44
2022/05/19 06:51:27;;;;;;;;;;;;;;;27.13;57.07;99135.44;5031194;28;20014;-44
2022/05/19 06:53:52;;;;;;;;;;;;;;;27.67;55.62;99126.66;5029276;28;20008;-45
2022/05/19 06:56:18;;;;;;;;;;;;;;;27.64;53.28;99126.94;5026202;28;19917;-45
2022/05/19 06:58:43;;;;;;;;;;;;;;;27.54;54.98;99122.59;5026973;28;19925;-48
2022/05/19 07:01:08;;;;;;;;;;;;;;;28.46;53.74;99122.06;5025322;28;19974;-44
2022/05/19 07:03:33;;;;;;;;;;;;;;;27.90;52.41;99122.50;5027961;28;19920;-46
2022/05/19 07:05:58;;;;;;;;;;;;;;;27.41;57.46;99124.78;5027568;28;19928;-46
2022/05/19 07:08:25;;;;;;;;;;;;;;;28.38;51.80;99120.25;5027458;28;19917;-43
2022/05/19 07:10:51;;;;;;;;;;;;;;;28.57;52.94;99114.69;5026316;28;19943;-43
2022/05/19 07:13:16;;;;;;;;;;;;;;;29.29;51.63;99116.78;5025998;28;20495;-45
2022/05/19 07:15:41;;;;;;;;;;;;;;;28.82;49.98;99112.09;5029625;28;19924;-46
2022/05/19 07:18:08;;;;;;;;;;;;;;;29.65;49.17;99118.22;5026475;28;19971;-46
2022/05/19 07:20:49;;;;;;;;;;;;;;;30.71;45.19;99125.84;5024943;28;19917;-45
2022/05/19 07:23:19;;;;;;;;;;;;;;;31.32;46.01;99151.72;5027080;28;19924;-45
2022/05/19 07:25:45;;;;;;;;;;;;;;;30.99;48.92;99176.72;5028865;28;19917;-45
2022/05/19 07:28:10;;;;;;;;;;;;;;;32.54;46.13;99164.81;5032708;28;19924;-45
2022/05/19 07:30:36;;;;;;;;;;;;;;;31.45;45.25;99149.28;5028794;28;19921;-45
2022/05/19 07:33:01;;;;;;;;;;;;;;;31.75;43.52;99149.31;5031399;28;19920;-48
2022/05/19 07:35:27;;;;;;;;;;;;;;;32.37;45.32;99167.66;5029228;28;19917;-44
2022/05/19 07:37:52;;;;;;;;;;;;;;;30.56;50.43;99191.38;5022909;28;20609;-45
2022/05/19 07:40:18;;;;;;;;;;;;;;;28.33;76.70;99217.91;5022345;28;19917;-46
2022/05/19 07:42:43;;;;;;;;;;;;;;;29.06;73.17;99209.41;5027704;28;19924;-44
2022/05/19 07:45:08;;;;;;;;;;;;;;;30.23;66.03;99196.78;5024065;28;20038;-44
2022/05/19 07:47:34;;;;;;;;;;;;;;;30.61;64.79;99183.72;5027101;28;20012;-45
2022/05/19 07:49:59;;;;;;;;;;;;;;;30.19;63.80;99179.53;5022746;28;19921;-47
2022/05/19 07:52:25;;;;;;;;;;;;;;;30.90;65.32;99184.91;5026734;28;19923;-46
2022/05/19 07:54:50;;;;;;;;;;;;;;;31.32;61.31;99171.16;5033858;28;19917;-46
2022/05/19 07:57:15;;;;;;;;;;;;;;;32.94;52.32;99181.28;5027685;28;19968;-47
2022/05/19 07:59:40;;;;;;;;;;;;;;;31.70;58.68;99179.16;5026447;28;20286;-46
2022/05/19 08:02:06;;;;;;;;;;;;;;;31.92;61.72;99177.47;5027353;28;19916;-46
2022/05/19 08:04:31;;;;;;;;;;;;;;;32.59;59.02;99168.56;5027675;28;20187;-48
2022/05/19 08:06:57;;;;;;;;;;;;;;;33.59;48.01;99171.44;5030333;28;19970;-44
2022/05/19 08:12:06;;;;;;;;;;;;;;;33.44;46.06;99176.84;5030021;28;20413;-45
2022/05/19 08:17:17;;;;;;;;;;;;;;;31.51;59.66;99182.34;5029068;28;19931;-44
2022/05/19 08:19:42;;;;;;;;;;;;;;;32.34;49.92;99169.84;5028383;28;19928;-47
2022/05/19 08:22:08;;;;;;;;;;;;;;;31.80;53.12;99174.41;5031353;28;19922;-45
2022/05/19 08:24:33;;;;;;;;;;;;;;;31.67;58.01;99175.03;5029206;28;19986;-43
2022/05/19 08:26:59;;;;;;;;;;;;;;;30.76;61.78;99179.31;5031828;28;19956;-45
2022/05/19 08:29:25;;;;;;;;;;;;;;;31.98;55.63;99171.44;5031665;28;20301;-46
2022/05/19 08:31:50;;;;;;;;;;;;;;;30.88;63.35;99189.59;5025566;28;19916;-45
2022/05/19 08:34:16;;;;;;;;;;;;;;;30.63;67.84;99187.03;5030593;28;19917;-45
2022/05/19 08:36:41;;;;;;;;;;;;;;;31.03;62.13;99187.84;5034843;28;19948;-47
2022/05/19 08:39:07;;;;;;;;;;;;;;;31.34;65.88;99185.13;5030109;28;19921;-46
2022/05/19 08:41:32;;;;;;;;;;;;;;;31.39;63.59;99181.94;5032773;28;19978;-45
2022/05/19 08:43:58;;;;;;;;;;;;;;;31.25;63.90;99192.34;5029165;28;19936;-46
2022/05/19 08:46:25;;;;;;;;;;;;;;;31.53;61.98;99173.19;5010753;28;19952;-46
2022/05/19 08:48:53;;;;;;;;;;;;;;;32.20;56.89;99174.19;5011963;28;19917;-45
2022/05/19 08:51:19;;;;;;;;;;;;;;;30.99;62.10;99176.72;5026091;28;19924;-45
2022/05/19 08:53:44;;;;;;;;;;;;;;;32.72;54.32;99173.22;5028572;28;19917;-48
2022/05/19 08:56:12;;;;;;;;;;;;;;;32.15;56.94;99171.25;5028488;28;20378;-47
2022/05/19 08:58:45;;;;;;;;;;;;;;;31.55;60.90;99176.50;5028069;28;19933;-45
2022/05/19 09:01:22;;;;;;;;;;;;;;;33.24;51.42;99166.81;5008733;28;19917;-46
2022/05/19 09:03:47;;;;;;;;;;;;;;;34.25;49.12;99160.34;5007805;28;20521;-46
2022/05/19 09:06:16;;;;;;;;;;;;;;;34.84;47.69;99151.75;5024045;28;19928;-46
2022/05/19 09:08:42;;;;;;;;;;;;;;;33.49;49.62;99153.88;5008602;28;19921;-49
2022/05/19 09:11:15;;;;;;;;;;;;;;;34.10;50.14;99150.63;5024739;28;20898;-47
2022/05/19 09:13:54;;;;;;;;;;;;;;;34.23;47.35;99149.84;5023896;28;19917;-45
2022/05/19 09:16:25;;;;;;;;;;;;;;;35.12;45.58;99138.22;5026726;28;20696;-49
2022/05/19 09:19:11;;;;;;;;;;;;;;;35.10;45.62;99140.28;5025998;28;20016;-46
2022/05/19 09:21:37;;;;;;;;;;;;;;;35.72;43.96;99138.22;5024281;28;19970;-45
2022/05/19 09:24:02;;;;;;;;;;;;;;;35.49;43.69;99140.47;5007672;28;20321;-45
2022/05/19 09:26:40;;;;;;;;;;;;;;;35.79;42.52;99136.34;5024230;28;19974;-45
2022/05/19 09:29:07;;;;;;;;;;;;;;;36.31;43.71;99130.22;5021200;28;20548;-45
2022/05/19 09:31:36;;;;;;;;;;;;;;;35.53;46.91;99136.34;5026330;28;19964;-44
2022/05/19 09:34:01;;;;;;;;;;;;;;;34.05;50.80;99136.97;5022431;28;20445;-45
2022/05/19 09:36:26;;;;;;;;;;;;;;;35.51;45.12;99120.50;5024206;28;19917;-46
2022/05/19 09:38:55;;;;;;;;;;;;;;;35.94;45.12;99125.38;5023606;28;19960;-45
2022/05/19 09:41:22;;;;;;;;;;;;;;;35.71;46.84;99120.50;5006522;28;19917;-48
2022/05/19 09:43:54;;;;;;;;;;;;;;;36.22;48.33;99119.75;5026317;28;19920;-47
2022/05/19 09:46:20;;;;;;;;;;;;;;;36.32;46.66;99118.47;5023560;28;20022;-44
2022/05/19 09:48:49;;;;;;;;;;;;;;;36.48;46.43;99114.47;5027446;28;20393;-45
2022/05/19 09:51:16;;;;;;;;;;;;;;;34.98;48.73;99105.22;5027339;28;20512;-46
2022/05/19 09:53:46;;;;;;;;;;;;;;;34.87;51.16;99113.03;5025068;28;19944;-48
2022/05/19 09:56:12;;;;;;;;;;;;;;;34.62;51.46;99110.13;5022944;28;20005;-48
2022/05/19 09:58:38;;;;;;;;;;;;;;;33.11;54.10;99114.13;5025534;28;19925;-46
2022/05/19 10:01:05;;;;;;;;;;;;;;;33.71;53.19;99101.25;5025901;28;19967;-47
2022/05/19 10:03:36;;;;;;;;;;;;;;;33.00;53.17;99116.44;5025164;28;19921;-46
2022/05/19 10:06:06;;;;;;;;;;;;;;;34.71;52.62;99096.34;5024200;28;19913;-46
2022/05/19 10:08:37;;;;;;;;;;;;;;;34.20;49.49;99093.31;5025401;28;19917;-46
2022/05/19 10:11:04;;;;;;;;;;;;;;;33.77;54.60;99088.97;5023879;28;21351;-47
2022/05/19 10:13:49;;;;;;;;;;;;;;;33.63;52.79;99096.06;5025360;28;19993;-48
2022/05/19 10:16:17;;;;;;;;;;;;;;;35.96;49.54;99084.97;5005969;28;20973;-47
2022/05/19 10:18:49;;;;;;;;;;;;;;;35.53;48.96;99086.28;5027095;28;19924;-46
2022/05/19 10:21:33;;;;;;;;;;;;;;;36.77;46.46;99091.63;5024243;28;20486;-45
2022/05/19 10:24:04;;;;;;;;;;;;;;;36.84;46.08;99087.03;5028151;28;19917;-48
2022/05/19 10:26:35;;;;;;;;;;;;;;;38.03;45.82;99087.00;5026327;28;19917;-45
2022/05/19 10:32:03;;;;;;;;;;;;;;;37.34;41.68;99076.31;5033397;28;19924;-47
2022/05/19 10:34:34;;;;;;;;;;;;;;;36.78;42.71;99077.97;5028304;28;19936;-45
2022/05/19 10:37:19;;;;;;;;;;;;;;;35.04;41.49;99076.84;5028767;28;19930;-45
2022/05/19 10:39:45;;;;;;;;;;;;;;;35.53;43.48;99074.75;5006813;28;19921;-45
2022/05/19 10:42:15;;;;;;;;;;;;;;;35.67;40.62;99065.69;5029198;28;19923;-45
2022/05/19 10:44:55;;;;;;;;;;;;;;;36.10;39.79;99062.44;5013946;28;19917;-45
2022/05/19 10:47:39;;;;;;;;;;;;;;;36.03;39.17;99061.63;5015604;28;20016;-44
2022/05/19 10:50:17;;;;;;;;;;;;;;;35.85;39.73;99056.97;5025196;28;19916;-45
2022/05/19 10:52:58;;;;;;;;;;;;;;;36.55;40.36;99051.69;5033556;28;19920;-45
2022/05/19 10:55:42;;;;;;;;;;;;;;;36.20;38.56;99041.38;5033432;28;19923;-44
2022/05/19 10:58:14;;;;;;;;;;;;;;;36.35;38.56;99041.09;5029154;28;19931;-44
2022/05/19 11:00:45;;;;;;;;;;;;;;;36.35;38.12;99029.53;5031040;28;19916;-45
2022/05/19 11:03:10;;;;;;;;;;;;;;;36.96;38.02;99023.53;5034498;28;19916;-46
2022/05/19 11:05:54;;;;;;;;;;;;;;;36.03;39.54;99026.78;5028316;28;20424;-45
2022/05/19 11:08:39;;;;;;;;;;;;;;;36.78;39.49;99004.72;5029293;28;19916;-49
2022/05/19 11:11:13;;;;;;;;;;;;;;;36.66;37.75;99001.09;5031290;28;19987;-45
2022/05/19 11:13:58;;;;;;;;;;;;;;;37.61;37.34;98990.06;5011063;28;20087;-45
2022/05/19 11:16:41;;;;;;;;;;;;;;;37.02;38.47;98982.41;5015318;28;19916;-44
2022/05/19 11:19:09;;;;;;;;;;;;;;;35.84;38.08;98987.53;5026464;28;19921;-45
2022/05/19 11:21:43;;;;;;;;;;;;;;;36.94;38.32;98971.94;5011804;28;19961;-44
2022/05/19 11:24:08;;;;;;;;;;;;;;;36.91;36.98;98967.00;5010677;28;19947;-45
2022/05/19 11:26:33;;;;;;;;;;;;;;;36.68;37.25;98972.16;5029347;28;20421;-45
2022/05/19 11:29:09;;;;;;;;;;;;;;;36.29;38.37;98976.75;5031081;28;19970;-46
2022/05/19 11:31:41;;;;;;;;;;;;;;;37.06;39.60;98969.34;5029006;28;19920;-45
2022/05/19 11:34:27;;;;;;;;;;;;;;;38.20;38.86;98966.16;5009846;28;19925;-45
2022/05/19 11:37:02;;;;;;;;;;;;;;;38.52;36.10;98964.03;4995457;28;19925;-44
2022/05/19 11:39:28;;;;;;;;;;;;;;;38.67;35.71;98969.78;5026013;28;19965;-45
2022/05/19 11:41:54;;;;;;;;;;;;;;;37.73;36.68;98961.41;5012185;28;19972;-45
2022/05/19 11:44:21;;;;;;;;;;;;;;;37.09;37.15;98965.41;5011486;28;19917;-46
2022/05/19 11:47:06;;;;;;;;;;;;;;;37.12;36.46;98963.13;5007869;28;19927;-45
2022/05/19 11:55:21;;;;;;;;;;;;;;;39.97;34.70;98961.53;5029663;28;19932;-45
2022/05/19 11:58:01;;;;;;;;;;;;;;;39.00;36.80;98960.31;5024842;28;19951;-48
2022/05/19 12:00:31;;;;;;;;;;;;;;;39.40;34.30;98962.28;5020835;28;20555;-45
2022/05/19 12:02:59;;;;;;;;;;;;;;;38.93;34.85;98959.63;5008873;28;21015;-46
2022/05/19 12:05:27;;;;;;;;;;;;;;;37.06;37.64;98950.53;5024743;28;19924;-46
2022/05/19 12:07:54;;;;;;;;;;;;;;;39.80;35.68;98958.75;5027467;28;19931;-45
2022/05/19 12:10:22;;;;;;;;;;;;;;;39.02;36.42;98946.63;5008901;28;19955;-45
2022/05/19 12:12:50;;;;;;;;;;;;;;;38.89;36.45;98953.06;5006412;28;19921;-44
2022/05/19 12:15:18;;;;;;;;;;;;;;;39.92;36.96;98956.88;5013479;28;19927;-47
2022/05/19 12:17:56;;;;;;;;;;;;;;;38.04;34.41;98949.63;5028988;28;20728;-45
2022/05/19 12:20:40;;;;;;;;;;;;;;;39.45;37.69;98946.22;5013890;28;19916;-44
2022/05/19 12:23:34;;;;;;;;;;;;;;;40.33;36.03;98941.41;5027488;28;19960;-45
2022/05/19 12:26:11;;;;;;;;;;;;;;;40.54;35.33;98939.03;5003012;28;20031;-46
2022/05/19 12:28:45;;;;;;;;;;;;;;;39.97;36.15;98942.66;5029309;28;19928;-45
2022/05/19 12:34:12;;;;;;;;;;;;;;;40.78;34.06;98928.06;5029139;28;19931;-46
2022/05/19 12:36:38;;;;;;;;;;;;;;;40.90;35.89;98928.81;4994579;28;20889;-45
2022/05/19 12:39:26;;;;;;;;;;;;;;;39.78;36.62;98938.47;5013013;28;19920;-45
2022/05/19 12:41:54;;;;;;;;;;;;;;;39.60;35.67;98926.84;5005154;28;20382;-46
2022/05/19 12:44:41;;;;;;;;;;;;;;;39.98;34.17;98929.97;5007931;28;20007;-45
2022/05/19 12:47:16;;;;;;;;;;;;;;;40.16;35.14;98929.75;5016714;28;20693;-47
2022/05/19 13:01:54;;;;;;;;;;;;;;;40.39;35.30;98934.22;5018605;28;19928;-48
2022/05/19 13:04:19;;;;;;;;;;;;;;;40.15;33.89;98934.34;5022693;28;20460;-44
2022/05/19 13:06:54;;;;;;;;;;;;;;;40.07;35.13;98944.72;5027177;28;19924;-40
2022/05/19 13:09:23;;;;;;;;;;;;;;;39.04;33.78;98934.56;5028760;28;19913;-44
2022/05/19 13:11:53;;;;;;;;;;;;;;;41.38;35.58;98935.38;5010356;28;19955;-41
2022/05/19 13:14:18;;;;;;;;;;;;;;;41.28;35.31;98935.25;5015424;28;20416;-40
2022/05/19 13:16:50;;;;;;;;;;;;;;;40.87;35.60;98937.38;5009695;28;19924;-45
2022/05/19 13:19:22;;;;;;;;;;;;;;;39.18;34.46;98942.38;5019723;28;19925;-40
2022/05/19 13:21:50;;;;;;;;;;;;;;;38.60;35.89;98942.16;5026016;28;19928;-49
2022/05/19 13:24:19;;;;;;;;;;;;;;;38.72;39.45;98936.78;5022591;28;19961;-48